createdAt,value
2022-08-31T00:00:10.989Z,996.92
2022-08-31T00:01:10.913Z,997.01
2022-08-31T00:02:10.941Z,996.95
2022-08-31T00:03:10.930Z,996.99
2022-08-31T00:04:10.978Z,997.02
2022-08-31T00:05:11.021Z,996.97
2022-08-31T00:06:10.836Z,997.03
2022-08-31T00:07:10.825Z,997.00
2022-08-31T00:08:10.835Z,997.02
2022-08-31T00:09:10.835Z,997.08
2022-08-31T00:10:10.844Z,997.05
2022-08-31T00:11:10.812Z,997.05
2022-08-31T00:12:10.867Z,997.05
2022-08-31T00:13:10.787Z,997.01
2022-08-31T00:14:13.045Z,996.98
2022-08-31T00:15:10.824Z,996.94
2022-08-31T00:16:10.865Z,996.98
2022-08-31T00:17:10.709Z,997.02
2022-08-31T00:18:10.811Z,996.98
2022-08-31T00:19:10.783Z,997.05
2022-08-31T00:20:32.550Z,997.01
2022-08-31T00:21:11.724Z,996.98
2022-08-31T00:22:10.668Z,996.93
2022-08-31T00:23:10.741Z,996.93
2022-08-31T00:24:10.643Z,996.94
2022-08-31T00:25:10.684Z,996.92
2022-08-31T00:26:10.635Z,997.01
2022-08-31T00:27:10.599Z,997.01
2022-08-31T00:28:10.568Z,997.02
2022-08-31T00:29:10.600Z,996.97
2022-08-31T00:30:10.620Z,997.03
2022-08-31T00:31:10.576Z,997.02
2022-08-31T00:32:10.711Z,997.00
2022-08-31T00:33:10.588Z,997.02
2022-08-31T00:34:10.537Z,997.00
2022-08-31T00:35:10.519Z,997.04
2022-08-31T00:36:10.600Z,997.04
2022-08-31T00:37:10.537Z,997.02
2022-08-31T00:38:10.699Z,997.07
2022-08-31T00:39:10.501Z,997.02
2022-08-31T00:40:10.609Z,997.05
2022-08-31T00:41:10.493Z,997.03
2022-08-31T00:42:10.452Z,997.07
2022-08-31T00:43:10.460Z,997.00
2022-08-31T00:44:10.423Z,997.06
2022-08-31T00:45:10.419Z,996.98
2022-08-31T00:46:10.526Z,996.96
2022-08-31T00:47:10.387Z,996.99
2022-08-31T00:48:10.408Z,996.98
2022-08-31T00:49:10.411Z,997.05
2022-08-31T00:50:10.343Z,997.03
2022-08-31T00:51:10.331Z,997.00
2022-08-31T00:52:10.335Z,997.05
2022-08-31T00:53:10.388Z,997.07
2022-08-31T00:54:10.304Z,997.04
2022-08-31T00:55:10.384Z,997.02
2022-08-31T00:56:11.159Z,997.08
2022-08-31T00:57:10.268Z,996.99
2022-08-31T00:58:10.322Z,997.03
2022-08-31T00:59:10.308Z,997.05
2022-08-31T01:00:10.276Z,997.05
2022-08-31T01:01:10.334Z,997.05
2022-08-31T01:02:10.391Z,997.08
2022-08-31T01:03:10.215Z,997.10
2022-08-31T01:04:10.203Z,997.05
2022-08-31T01:05:10.307Z,997.09
2022-08-31T01:06:10.201Z,997.11
2022-08-31T01:07:10.205Z,997.09
2022-08-31T01:08:10.367Z,997.18
2022-08-31T01:09:10.235Z,997.10
2022-08-31T01:10:10.186Z,997.14
2022-08-31T01:11:10.144Z,997.09
2022-08-31T01:12:10.139Z,997.13
2022-08-31T01:13:10.120Z,997.11
2022-08-31T01:14:11.196Z,997.13
2022-08-31T01:15:10.157Z,997.10
2022-08-31T01:16:10.211Z,997.07
2022-08-31T01:17:10.116Z,997.16
2022-08-31T01:18:10.138Z,997.12
2022-08-31T01:19:10.097Z,997.10
2022-08-31T01:20:10.056Z,997.11
2022-08-31T01:21:10.180Z,997.08
2022-08-31T01:22:10.101Z,997.12
2022-08-31T01:23:10.061Z,997.19
2022-08-31T01:24:10.038Z,997.17
2022-08-31T01:25:10.030Z,997.09
2022-08-31T01:26:11.515Z,997.17
2022-08-31T01:27:10.001Z,997.17
2022-08-31T01:28:09.997Z,997.15
2022-08-31T01:29:09.992Z,997.17
2022-08-31T01:30:09.964Z,997.17
2022-08-31T01:31:10.000Z,997.23
2022-08-31T01:32:09.949Z,997.23
2022-08-31T01:33:09.913Z,997.17
2022-08-31T01:34:09.941Z,997.21
2022-08-31T01:35:11.265Z,997.27
2022-08-31T01:36:14.184Z,997.23
2022-08-31T01:37:11.893Z,997.22
2022-08-31T01:38:10.621Z,997.17
2022-08-31T01:39:09.849Z,997.19
2022-08-31T01:40:09.893Z,997.15
2022-08-31T01:41:09.862Z,997.15
2022-08-31T01:42:09.853Z,997.15
2022-08-31T01:43:09.834Z,997.14
2022-08-31T01:44:09.820Z,997.12
2022-08-31T01:45:09.794Z,997.08
2022-08-31T01:46:09.898Z,997.01
2022-08-31T01:47:11.103Z,996.95
2022-08-31T01:48:09.774Z,997.00
2022-08-31T01:49:09.792Z,996.97
2022-08-31T01:50:09.740Z,996.94
2022-08-31T01:51:10.810Z,996.91
2022-08-31T01:52:09.711Z,997.02
2022-08-31T01:53:09.722Z,997.01
2022-08-31T01:54:09.728Z,997.03
2022-08-31T01:55:09.690Z,997.01
2022-08-31T01:56:10.051Z,997.00
2022-08-31T01:57:09.713Z,996.98
2022-08-31T01:58:09.706Z,996.97
2022-08-31T01:59:10.177Z,996.99
2022-08-31T02:00:09.728Z,996.98
2022-08-31T02:01:31.204Z,996.98
2022-08-31T02:02:10.747Z,996.99
2022-08-31T02:03:10.136Z,997.00
2022-08-31T02:04:09.723Z,996.93
2022-08-31T02:05:09.628Z,997.08
2022-08-31T02:06:09.583Z,996.98
2022-08-31T02:07:09.700Z,997.06
2022-08-31T02:08:09.719Z,997.10
2022-08-31T02:09:10.062Z,997.11
2022-08-31T02:10:12.854Z,997.05
2022-08-31T02:11:09.828Z,997.06
2022-08-31T02:12:09.563Z,997.05
2022-08-31T02:13:09.588Z,997.05
2022-08-31T02:14:09.552Z,997.03
2022-08-31T02:15:09.567Z,997.10
2022-08-31T02:16:09.556Z,997.13
2022-08-31T02:17:43.075Z,997.04
2022-08-31T02:18:10.124Z,997.06
2022-08-31T02:19:10.204Z,997.04
2022-08-31T02:20:10.209Z,997.00
2022-08-31T02:21:10.140Z,997.13
2022-08-31T02:22:10.164Z,997.11
2022-08-31T02:23:09.576Z,997.16
2022-08-31T02:24:11.026Z,997.14
2022-08-31T02:25:09.463Z,997.07
2022-08-31T02:26:09.350Z,997.12
2022-08-31T02:27:09.328Z,997.10
2022-08-31T02:28:09.355Z,997.10
2022-08-31T02:29:09.447Z,997.08
2022-08-31T02:30:10.109Z,997.11
2022-08-31T02:31:09.467Z,997.05
2022-08-31T02:32:19.442Z,997.06
2022-08-31T02:33:10.415Z,997.12
2022-08-31T02:34:09.432Z,997.09
2022-08-31T02:35:09.237Z,997.05
2022-08-31T02:36:09.500Z,997.02
2022-08-31T02:37:11.028Z,997.03
2022-08-31T02:38:09.221Z,996.97
2022-08-31T02:39:09.201Z,996.95
2022-08-31T02:40:12.027Z,996.89
2022-08-31T02:41:09.408Z,996.95
2022-08-31T02:42:09.173Z,996.87
2022-08-31T02:43:09.152Z,996.84
2022-08-31T02:44:09.161Z,996.91
2022-08-31T02:45:09.146Z,996.91
2022-08-31T02:46:09.274Z,996.91
2022-08-31T02:47:09.165Z,996.89
2022-08-31T02:48:09.133Z,996.83
2022-08-31T02:49:09.075Z,996.94
2022-08-31T02:50:09.077Z,996.92
2022-08-31T02:51:09.111Z,996.90
2022-08-31T02:52:09.068Z,996.86
2022-08-31T02:53:09.044Z,996.91
2022-08-31T02:54:09.041Z,996.87
2022-08-31T02:55:09.029Z,996.91
2022-08-31T02:56:09.042Z,996.92
2022-08-31T02:57:09.009Z,996.90
2022-08-31T02:58:09.021Z,996.89
2022-08-31T02:59:08.973Z,996.92
2022-08-31T03:00:09.050Z,996.92
2022-08-31T03:01:08.982Z,996.92
2022-08-31T03:02:09.083Z,996.87
2022-08-31T03:03:08.979Z,996.87
2022-08-31T03:04:08.951Z,996.81
2022-08-31T03:05:08.946Z,996.84
2022-08-31T03:06:09.014Z,996.92
2022-08-31T03:07:08.930Z,996.94
2022-08-31T03:08:08.873Z,996.95
2022-08-31T03:09:08.866Z,996.96
2022-08-31T03:10:08.870Z,996.90
2022-08-31T03:11:08.890Z,996.92
2022-08-31T03:12:08.859Z,996.87
2022-08-31T03:13:08.847Z,996.84
2022-08-31T03:14:08.828Z,996.81
2022-08-31T03:15:08.807Z,996.85
2022-08-31T03:16:08.864Z,996.85
2022-08-31T03:17:08.845Z,996.84
2022-08-31T03:18:08.787Z,996.86
2022-08-31T03:19:08.751Z,996.83
2022-08-31T03:20:08.778Z,996.86
2022-08-31T03:21:08.735Z,996.86
2022-08-31T03:22:08.747Z,996.88
2022-08-31T03:23:08.748Z,996.84
2022-08-31T03:24:08.706Z,996.85
2022-08-31T03:25:08.701Z,996.84
2022-08-31T03:26:08.722Z,996.88
2022-08-31T03:27:08.675Z,996.85
2022-08-31T03:28:08.671Z,996.81
2022-08-31T03:29:08.694Z,996.81
2022-08-31T03:30:08.675Z,996.81
2022-08-31T03:31:08.736Z,996.72
2022-08-31T03:32:08.604Z,996.78
2022-08-31T03:33:08.655Z,996.80
2022-08-31T03:34:08.621Z,996.78
2022-08-31T03:35:09.597Z,996.83
2022-08-31T03:36:08.570Z,996.82
2022-08-31T03:37:08.604Z,996.79
2022-08-31T03:38:08.591Z,996.87
2022-08-31T03:39:08.579Z,996.92
2022-08-31T03:40:08.604Z,996.82
2022-08-31T03:41:08.551Z,996.91
2022-08-31T03:42:08.515Z,996.90
2022-08-31T03:43:09.587Z,996.89
2022-08-31T03:44:08.503Z,996.92
2022-08-31T03:45:08.680Z,996.95
2022-08-31T03:46:12.153Z,996.94
2022-08-31T03:47:08.453Z,996.93
2022-08-31T03:48:12.172Z,996.99
2022-08-31T03:49:09.444Z,996.97
2022-08-31T03:50:08.438Z,997.00
2022-08-31T03:51:08.437Z,996.95
2022-08-31T03:52:08.389Z,996.99
2022-08-31T03:53:08.391Z,996.99
2022-08-31T03:54:08.370Z,997.03
2022-08-31T03:55:08.388Z,996.98
2022-08-31T03:56:08.373Z,997.01
2022-08-31T03:57:08.364Z,997.06
2022-08-31T03:58:09.329Z,997.01
2022-08-31T03:59:08.408Z,997.08
2022-08-31T04:00:08.332Z,997.00
2022-08-31T04:01:09.167Z,997.02
2022-08-31T04:02:08.353Z,997.10
2022-08-31T04:03:09.045Z,997.18
2022-08-31T04:04:08.266Z,997.16
2022-08-31T04:05:08.272Z,997.07
2022-08-31T04:06:08.256Z,997.10
2022-08-31T04:07:08.284Z,997.13
2022-08-31T04:08:08.233Z,997.12
2022-08-31T04:09:08.401Z,997.20
2022-08-31T04:10:08.216Z,997.17
2022-08-31T04:11:08.276Z,997.16
2022-08-31T04:12:08.205Z,997.17
2022-08-31T04:13:08.377Z,997.15
2022-08-31T04:14:08.149Z,997.17
2022-08-31T04:15:08.181Z,997.14
2022-08-31T04:16:08.226Z,997.13
2022-08-31T04:17:08.996Z,997.14
2022-08-31T04:18:08.417Z,997.17
2022-08-31T04:19:08.197Z,997.16
2022-08-31T04:20:08.102Z,997.20
2022-08-31T04:21:08.079Z,997.12
2022-08-31T04:22:08.197Z,997.10
2022-08-31T04:23:08.098Z,997.17
2022-08-31T04:24:08.054Z,997.11
2022-08-31T04:25:08.021Z,997.13
2022-08-31T04:26:08.029Z,997.16
2022-08-31T04:27:08.057Z,997.19
2022-08-31T04:28:08.031Z,997.15
2022-08-31T04:29:12.767Z,997.10
2022-08-31T04:30:08.026Z,997.13
2022-08-31T04:31:08.009Z,997.14
2022-08-31T04:32:07.974Z,997.05
2022-08-31T04:33:07.953Z,997.12
2022-08-31T04:34:07.943Z,997.12
2022-08-31T04:35:07.994Z,997.02
2022-08-31T04:36:07.921Z,997.07
2022-08-31T04:37:07.905Z,997.12
2022-08-31T04:38:07.923Z,997.10
2022-08-31T04:39:07.895Z,997.05
2022-08-31T04:40:07.889Z,997.17
2022-08-31T04:41:07.975Z,997.12
2022-08-31T04:42:07.832Z,997.20
2022-08-31T04:43:07.835Z,997.23
2022-08-31T04:44:07.862Z,997.19
2022-08-31T04:45:07.820Z,997.19
2022-08-31T04:46:07.883Z,997.22
2022-08-31T04:47:07.824Z,997.18
2022-08-31T04:48:07.779Z,997.16
2022-08-31T04:49:07.755Z,997.27
2022-08-31T04:50:07.783Z,997.27
2022-08-31T04:51:07.740Z,997.25
2022-08-31T04:52:07.748Z,997.24
2022-08-31T04:53:07.744Z,997.21
2022-08-31T04:54:07.715Z,997.31
2022-08-31T04:55:07.723Z,997.27
2022-08-31T04:56:07.704Z,997.31
2022-08-31T04:57:07.690Z,997.31
2022-08-31T04:58:07.667Z,997.28
2022-08-31T04:59:07.692Z,997.30
2022-08-31T05:00:07.670Z,997.28
2022-08-31T05:01:07.691Z,997.24
2022-08-31T05:02:07.726Z,997.26
2022-08-31T05:03:07.706Z,997.29
2022-08-31T05:04:07.623Z,997.28
2022-08-31T05:05:07.613Z,997.31
2022-08-31T05:06:07.591Z,997.30
2022-08-31T05:07:07.607Z,997.33
2022-08-31T05:08:08.370Z,997.32
2022-08-31T05:09:07.556Z,997.32
2022-08-31T05:10:07.553Z,997.41
2022-08-31T05:11:07.552Z,997.42
2022-08-31T05:12:07.600Z,997.34
2022-08-31T05:13:07.525Z,997.36
2022-08-31T05:14:07.501Z,997.37
2022-08-31T05:15:07.492Z,997.38
2022-08-31T05:16:07.529Z,997.37
2022-08-31T05:17:09.798Z,997.44
2022-08-31T05:18:07.457Z,997.40
2022-08-31T05:19:07.446Z,997.40
2022-08-31T05:20:07.449Z,997.41
2022-08-31T05:21:07.465Z,997.42
2022-08-31T05:22:07.430Z,997.45
2022-08-31T05:23:07.422Z,997.41
2022-08-31T05:24:07.385Z,997.40
2022-08-31T05:25:07.385Z,997.42
2022-08-31T05:26:07.355Z,997.45
2022-08-31T05:27:07.385Z,997.44
2022-08-31T05:28:07.349Z,997.47
2022-08-31T05:29:07.329Z,997.46
2022-08-31T05:30:07.329Z,997.53
2022-08-31T05:31:07.352Z,997.47
2022-08-31T05:32:08.137Z,997.46
2022-08-31T05:33:07.278Z,997.51
2022-08-31T05:34:07.318Z,997.50
2022-08-31T05:35:07.266Z,997.51
2022-08-31T05:36:07.273Z,997.58
2022-08-31T05:37:07.251Z,997.53
2022-08-31T05:38:07.239Z,997.52
2022-08-31T05:39:07.218Z,997.58
2022-08-31T05:40:07.309Z,997.57
2022-08-31T05:41:07.203Z,997.61
2022-08-31T05:42:07.211Z,997.56
2022-08-31T05:43:07.226Z,997.63
2022-08-31T05:44:07.186Z,997.65
2022-08-31T05:45:08.246Z,997.64
2022-08-31T05:46:10.257Z,997.65
2022-08-31T05:47:08.198Z,997.66
2022-08-31T05:48:07.130Z,997.63
2022-08-31T05:49:07.168Z,997.59
2022-08-31T05:50:08.386Z,997.61
2022-08-31T05:51:07.131Z,997.63
2022-08-31T05:52:07.114Z,997.60
2022-08-31T05:53:07.090Z,997.61
2022-08-31T05:54:07.052Z,997.61
2022-08-31T05:55:07.199Z,997.61
2022-08-31T05:56:07.050Z,997.64
2022-08-31T05:57:07.068Z,997.56
2022-08-31T05:58:07.026Z,997.60
2022-08-31T05:59:07.016Z,997.63
2022-08-31T06:00:06.971Z,997.65
2022-08-31T06:01:06.982Z,997.62
2022-08-31T06:02:07.107Z,997.63
2022-08-31T06:03:06.983Z,997.60
2022-08-31T06:04:06.961Z,997.62
2022-08-31T06:05:06.973Z,997.61
2022-08-31T06:06:06.976Z,997.59
2022-08-31T06:07:07.151Z,997.61
2022-08-31T06:08:06.904Z,997.62
2022-08-31T06:09:06.893Z,997.67
2022-08-31T06:10:06.883Z,997.61
2022-08-31T06:11:06.872Z,997.67
2022-08-31T06:12:06.898Z,997.65
2022-08-31T06:13:06.884Z,997.67
2022-08-31T06:14:06.828Z,997.66
2022-08-31T06:15:06.855Z,997.66
2022-08-31T06:16:06.825Z,997.66
2022-08-31T06:17:06.791Z,997.68
2022-08-31T06:18:06.788Z,997.68
2022-08-31T06:19:06.821Z,997.71
2022-08-31T06:20:06.788Z,997.70
2022-08-31T06:21:06.759Z,997.71
2022-08-31T06:22:06.733Z,997.70
2022-08-31T06:23:06.816Z,997.72
2022-08-31T06:24:06.737Z,997.71
2022-08-31T06:25:06.730Z,997.76
2022-08-31T06:26:06.668Z,997.75
2022-08-31T06:27:06.665Z,997.76
2022-08-31T06:28:06.662Z,997.77
2022-08-31T06:29:06.685Z,997.79
2022-08-31T06:30:07.173Z,997.75
2022-08-31T06:31:06.678Z,997.87
2022-08-31T06:32:06.640Z,997.78
2022-08-31T06:33:06.620Z,997.86
2022-08-31T06:34:06.661Z,997.83
2022-08-31T06:35:06.621Z,997.85
2022-08-31T06:36:06.605Z,997.81
2022-08-31T06:37:06.605Z,997.83
2022-08-31T06:38:06.566Z,997.88
2022-08-31T06:39:06.581Z,997.83
2022-08-31T06:40:06.654Z,997.82
2022-08-31T06:41:06.558Z,997.87
2022-08-31T06:42:06.533Z,997.85
2022-08-31T06:43:06.538Z,997.85
2022-08-31T06:44:06.541Z,997.90
2022-08-31T06:45:06.501Z,997.85
2022-08-31T06:46:06.674Z,997.82
2022-08-31T06:47:06.565Z,997.87
2022-08-31T06:48:06.462Z,997.89
2022-08-31T06:49:08.731Z,997.81
2022-08-31T06:50:06.465Z,997.83
2022-08-31T06:51:06.435Z,997.88
2022-08-31T06:52:06.650Z,997.89
2022-08-31T06:53:06.401Z,997.90
2022-08-31T06:54:27.545Z,997.97
2022-08-31T06:55:08.421Z,997.91
2022-08-31T06:56:06.405Z,997.93
2022-08-31T06:57:07.352Z,997.98
2022-08-31T06:58:06.555Z,997.97
2022-08-31T06:59:06.427Z,997.97
2022-08-31T07:00:06.350Z,997.94
2022-08-31T07:01:06.331Z,998.00
2022-08-31T07:02:06.525Z,998.00
2022-08-31T07:03:06.350Z,998.00
2022-08-31T07:04:06.329Z,998.01
2022-08-31T07:05:06.371Z,998.03
2022-08-31T07:06:06.303Z,998.04
2022-08-31T07:07:06.238Z,998.06
2022-08-31T07:08:06.302Z,998.06
2022-08-31T07:09:06.282Z,998.09
2022-08-31T07:10:06.455Z,997.99
2022-08-31T07:11:06.270Z,998.07
2022-08-31T07:12:06.219Z,998.11
2022-08-31T07:13:06.286Z,998.03
2022-08-31T07:14:06.230Z,998.06
2022-08-31T07:15:06.222Z,998.13
2022-08-31T07:16:06.296Z,998.09
2022-08-31T07:17:06.195Z,998.10
2022-08-31T07:18:10.277Z,998.16
2022-08-31T07:19:08.022Z,998.06
2022-08-31T07:20:06.191Z,998.09
2022-08-31T07:21:06.151Z,998.07
2022-08-31T07:22:06.219Z,998.09
2022-08-31T07:23:06.169Z,998.11
2022-08-31T07:24:06.160Z,998.13
2022-08-31T07:25:06.115Z,998.10
2022-08-31T07:26:06.078Z,998.09
2022-08-31T07:27:06.187Z,998.15
2022-08-31T07:28:06.076Z,998.15
2022-08-31T07:29:06.034Z,998.19
2022-08-31T07:30:06.051Z,998.18
2022-08-31T07:31:06.227Z,998.18
2022-08-31T07:32:06.043Z,998.19
2022-08-31T07:33:06.529Z,998.16
2022-08-31T07:34:06.031Z,998.15
2022-08-31T07:35:06.115Z,998.17
2022-08-31T07:36:05.990Z,998.13
2022-08-31T07:37:05.987Z,998.16
2022-08-31T07:38:05.916Z,998.09
2022-08-31T07:39:05.950Z,998.18
2022-08-31T07:40:07.856Z,998.07
2022-08-31T07:41:08.137Z,998.12
2022-08-31T07:42:05.925Z,998.16
2022-08-31T07:43:05.927Z,998.15
2022-08-31T07:44:05.935Z,998.13
2022-08-31T07:45:05.892Z,998.10
2022-08-31T07:46:05.895Z,998.12
2022-08-31T07:47:05.850Z,998.17
2022-08-31T07:48:05.818Z,998.09
2022-08-31T07:49:05.859Z,998.18
2022-08-31T07:50:05.836Z,998.19
2022-08-31T07:51:05.840Z,998.14
2022-08-31T07:52:05.805Z,998.16
2022-08-31T07:53:05.808Z,998.20
2022-08-31T07:54:05.852Z,998.22
2022-08-31T07:55:05.796Z,998.23
2022-08-31T07:56:05.893Z,998.16
2022-08-31T07:57:05.752Z,998.18
2022-08-31T07:58:05.809Z,998.18
2022-08-31T07:59:06.936Z,998.17
2022-08-31T08:00:05.697Z,998.24
2022-08-31T08:01:05.722Z,998.23
2022-08-31T08:02:05.828Z,998.29
2022-08-31T08:03:05.791Z,998.13
2022-08-31T08:04:05.644Z,998.18
2022-08-31T08:05:05.700Z,998.23
2022-08-31T08:06:05.656Z,998.27
2022-08-31T08:07:05.667Z,998.23
2022-08-31T08:08:08.347Z,998.25
2022-08-31T08:09:22.510Z,998.27
2022-08-31T08:10:07.620Z,998.25
2022-08-31T08:11:05.623Z,998.32
2022-08-31T08:12:05.605Z,998.23
2022-08-31T08:13:05.556Z,998.23
2022-08-31T08:14:08.585Z,998.17
2022-08-31T08:15:06.573Z,998.21
2022-08-31T08:16:05.611Z,998.22
2022-08-31T08:17:05.791Z,998.19
2022-08-31T08:18:05.666Z,998.22
2022-08-31T08:19:05.501Z,998.26
2022-08-31T08:20:05.590Z,998.24
2022-08-31T08:21:05.486Z,998.26
2022-08-31T08:22:05.509Z,998.19
2022-08-31T08:23:05.486Z,998.24
2022-08-31T08:24:06.482Z,998.25
2022-08-31T08:25:05.434Z,998.26
2022-08-31T08:26:05.396Z,998.25
2022-08-31T08:27:05.435Z,998.29
2022-08-31T08:28:22.788Z,998.23
2022-08-31T08:29:06.369Z,998.33
2022-08-31T08:30:05.369Z,998.33
2022-08-31T08:31:05.456Z,998.32
2022-08-31T08:32:05.367Z,998.33
2022-08-31T08:33:05.307Z,998.27
2022-08-31T08:34:05.284Z,998.35
2022-08-31T08:35:05.334Z,998.37
2022-08-31T08:36:05.253Z,998.28
2022-08-31T08:37:05.263Z,998.32
2022-08-31T08:38:07.939Z,998.37
2022-08-31T08:39:06.241Z,998.33
2022-08-31T08:40:05.295Z,998.37
2022-08-31T08:41:05.204Z,998.38
2022-08-31T08:42:05.206Z,998.32
2022-08-31T08:43:05.175Z,998.45
2022-08-31T08:44:05.171Z,998.40
2022-08-31T08:45:05.158Z,998.39
2022-08-31T08:46:25.306Z,998.44
2022-08-31T08:47:07.172Z,998.48
2022-08-31T08:48:05.147Z,998.46
2022-08-31T08:49:05.107Z,998.39
2022-08-31T08:50:05.116Z,998.40
2022-08-31T08:51:05.136Z,998.39
2022-08-31T08:52:05.082Z,998.44
2022-08-31T08:53:05.091Z,998.45
2022-08-31T08:54:05.075Z,998.40
2022-08-31T08:55:05.066Z,998.42
2022-08-31T08:56:29.628Z,998.45
2022-08-31T08:57:07.056Z,998.42
2022-08-31T08:58:05.055Z,998.40
2022-08-31T08:59:08.622Z,998.39
2022-08-31T09:00:07.008Z,998.45
2022-08-31T09:01:05.009Z,998.48
2022-08-31T09:02:05.184Z,998.38
2022-08-31T09:03:05.004Z,998.35
2022-08-31T09:04:04.961Z,998.43
2022-08-31T09:05:04.940Z,998.42
2022-08-31T09:06:04.955Z,998.41
2022-08-31T09:07:04.902Z,998.45
2022-08-31T09:08:05.016Z,998.40
2022-08-31T09:09:04.892Z,998.44
2022-08-31T09:10:04.902Z,998.44
2022-08-31T09:11:04.893Z,998.44
2022-08-31T09:12:04.853Z,998.42
2022-08-31T09:13:04.868Z,998.46
2022-08-31T09:14:04.857Z,998.46
2022-08-31T09:15:04.830Z,998.45
2022-08-31T09:16:04.902Z,998.42
2022-08-31T09:17:04.820Z,998.46
2022-08-31T09:18:04.808Z,998.43
2022-08-31T09:19:04.803Z,998.41
2022-08-31T09:20:04.777Z,998.48
2022-08-31T09:21:04.773Z,998.46
2022-08-31T09:22:04.743Z,998.45
2022-08-31T09:23:04.733Z,998.47
2022-08-31T09:24:05.654Z,998.47
2022-08-31T09:25:04.705Z,998.37
2022-08-31T09:26:08.233Z,998.42
2022-08-31T09:27:05.715Z,998.49
2022-08-31T09:28:04.678Z,998.45
2022-08-31T09:29:04.697Z,998.43
2022-08-31T09:30:04.684Z,998.45
2022-08-31T09:31:04.715Z,998.42
2022-08-31T09:32:06.339Z,998.44
2022-08-31T09:33:05.626Z,998.39
2022-08-31T09:34:04.617Z,998.42
2022-08-31T09:35:04.623Z,998.39
2022-08-31T09:36:04.606Z,998.46
2022-08-31T09:37:04.654Z,998.44
2022-08-31T09:38:04.594Z,998.48
2022-08-31T09:39:04.555Z,998.50
2022-08-31T09:40:07.330Z,998.52
2022-08-31T09:41:05.550Z,998.52
2022-08-31T09:42:04.546Z,998.41
2022-08-31T09:43:04.516Z,998.54
2022-08-31T09:44:04.531Z,998.45
2022-08-31T09:45:04.534Z,998.48
2022-08-31T09:46:04.539Z,998.49
2022-08-31T09:47:04.462Z,998.45
2022-08-31T09:48:04.482Z,998.46
2022-08-31T09:49:04.526Z,998.47
2022-08-31T09:50:04.463Z,998.52
2022-08-31T09:51:04.422Z,998.48
2022-08-31T09:52:04.424Z,998.50
2022-08-31T09:53:04.419Z,998.52
2022-08-31T09:54:04.403Z,998.52
2022-08-31T09:55:04.458Z,998.50
2022-08-31T09:56:04.375Z,998.46
2022-08-31T09:57:04.383Z,998.50
2022-08-31T09:58:04.389Z,998.54
2022-08-31T09:59:04.339Z,998.52
2022-08-31T10:00:04.356Z,998.51
2022-08-31T10:01:04.408Z,998.45
2022-08-31T10:02:06.092Z,998.51
2022-08-31T10:03:06.620Z,998.47
2022-08-31T10:04:05.291Z,998.52
2022-08-31T10:05:04.379Z,998.52
2022-08-31T10:06:04.276Z,998.50
2022-08-31T10:07:04.279Z,998.42
2022-08-31T10:08:04.256Z,998.49
2022-08-31T10:09:04.268Z,998.42
2022-08-31T10:10:04.236Z,998.45
2022-08-31T10:11:04.227Z,998.36
2022-08-31T10:12:04.187Z,998.41
2022-08-31T10:13:04.192Z,998.44
2022-08-31T10:14:04.220Z,998.38
2022-08-31T10:15:04.187Z,998.43
2022-08-31T10:16:04.246Z,998.45
2022-08-31T10:17:04.176Z,998.46
2022-08-31T10:18:05.136Z,998.45
2022-08-31T10:19:04.116Z,998.43
2022-08-31T10:20:05.124Z,998.44
2022-08-31T10:21:04.256Z,998.44
2022-08-31T10:22:04.577Z,998.43
2022-08-31T10:23:04.077Z,998.45
2022-08-31T10:24:05.000Z,998.45
2022-08-31T10:25:04.080Z,998.43
2022-08-31T10:26:04.081Z,998.42
2022-08-31T10:27:04.038Z,998.42
2022-08-31T10:28:04.012Z,998.44
2022-08-31T10:29:04.133Z,998.42
2022-08-31T10:30:04.100Z,998.47
2022-08-31T10:31:05.264Z,998.42
2022-08-31T10:32:04.225Z,998.45
2022-08-31T10:33:04.046Z,998.44
2022-08-31T10:34:04.029Z,998.45
2022-08-31T10:35:04.029Z,998.35
2022-08-31T10:36:04.115Z,998.41
2022-08-31T10:37:03.966Z,998.43
2022-08-31T10:38:04.083Z,998.42
2022-08-31T10:39:04.032Z,998.43
2022-08-31T10:40:04.021Z,998.51
2022-08-31T10:41:04.056Z,998.42
2022-08-31T10:42:03.909Z,998.41
2022-08-31T10:43:03.889Z,998.39
2022-08-31T10:44:03.949Z,998.36
2022-08-31T10:45:04.010Z,998.38
2022-08-31T10:46:03.945Z,998.41
2022-08-31T10:47:04.809Z,998.34
2022-08-31T10:48:03.858Z,998.42
2022-08-31T10:49:03.946Z,998.45
2022-08-31T10:50:03.805Z,998.41
2022-08-31T10:51:03.840Z,998.41
2022-08-31T10:52:03.842Z,998.39
2022-08-31T10:53:03.846Z,998.38
2022-08-31T10:54:03.805Z,998.40
2022-08-31T10:55:03.954Z,998.34
2022-08-31T10:56:03.998Z,998.38
2022-08-31T10:57:03.799Z,998.32
2022-08-31T10:58:03.722Z,998.30
2022-08-31T10:59:04.814Z,998.35
2022-08-31T11:00:03.698Z,998.23
2022-08-31T11:01:03.688Z,998.28
2022-08-31T11:02:03.638Z,998.28
2022-08-31T11:03:03.658Z,998.31
2022-08-31T11:04:03.665Z,998.28
2022-08-31T11:05:03.614Z,998.30
2022-08-31T11:06:03.623Z,998.36
2022-08-31T11:07:03.590Z,998.21
2022-08-31T11:08:03.602Z,998.23
2022-08-31T11:09:03.682Z,998.28
2022-08-31T11:10:03.563Z,998.29
2022-08-31T11:11:03.585Z,998.22
2022-08-31T11:12:03.587Z,998.25
2022-08-31T11:13:03.538Z,998.27
2022-08-31T11:14:03.549Z,998.27
2022-08-31T11:15:03.523Z,998.24
2022-08-31T11:16:03.618Z,998.29
2022-08-31T11:17:03.513Z,998.30
2022-08-31T11:18:03.502Z,998.25
2022-08-31T11:19:07.144Z,998.23
2022-08-31T11:20:06.111Z,998.28
2022-08-31T11:21:04.543Z,998.23
2022-08-31T11:22:03.446Z,998.28
2022-08-31T11:23:03.423Z,998.25
2022-08-31T11:24:03.453Z,998.22
2022-08-31T11:25:03.399Z,998.23
2022-08-31T11:26:03.491Z,998.24
2022-08-31T11:27:03.389Z,998.19
2022-08-31T11:28:03.375Z,998.27
2022-08-31T11:29:03.383Z,998.29
2022-08-31T11:30:03.361Z,998.16
2022-08-31T11:31:03.466Z,998.18
2022-08-31T11:32:03.371Z,998.08
2022-08-31T11:33:03.368Z,998.13
2022-08-31T11:34:16.183Z,998.16
2022-08-31T11:35:05.320Z,998.10
2022-08-31T11:36:06.671Z,998.07
2022-08-31T11:37:04.280Z,998.12
2022-08-31T11:38:04.103Z,998.14
2022-08-31T11:39:03.270Z,998.15
2022-08-31T11:40:03.333Z,998.05
2022-08-31T11:41:03.227Z,998.08
2022-08-31T11:42:03.258Z,998.14
2022-08-31T11:43:03.233Z,998.14
2022-08-31T11:44:03.211Z,998.12
2022-08-31T11:45:03.180Z,998.08
2022-08-31T11:46:03.241Z,998.01
2022-08-31T11:47:05.032Z,997.98
2022-08-31T11:48:03.197Z,998.04
2022-08-31T11:49:03.144Z,998.01
2022-08-31T11:50:03.145Z,997.95
2022-08-31T11:51:03.120Z,998.02
2022-08-31T11:52:03.117Z,998.01
2022-08-31T11:53:03.109Z,997.94
2022-08-31T11:54:03.117Z,997.96
2022-08-31T11:55:03.081Z,998.00
2022-08-31T11:56:03.094Z,998.00
2022-08-31T11:57:03.052Z,997.93
2022-08-31T11:58:03.061Z,998.02
2022-08-31T11:59:03.049Z,997.99
2022-08-31T12:00:04.029Z,997.97
2022-08-31T12:01:03.089Z,998.03
2022-08-31T12:02:03.133Z,997.99
2022-08-31T12:03:02.997Z,997.99
2022-08-31T12:04:03.027Z,997.97
2022-08-31T12:05:03.299Z,998.02
2022-08-31T12:06:02.982Z,998.00
2022-08-31T12:07:03.020Z,997.98
2022-08-31T12:08:02.952Z,998.00
2022-08-31T12:09:02.923Z,998.01
2022-08-31T12:10:02.965Z,997.96
2022-08-31T12:11:02.889Z,997.93
2022-08-31T12:12:02.876Z,997.96
2022-08-31T12:13:02.908Z,997.97
2022-08-31T12:14:02.885Z,997.98
2022-08-31T12:15:02.892Z,997.99
2022-08-31T12:16:02.908Z,997.98
2022-08-31T12:17:02.865Z,997.95
2022-08-31T12:18:02.839Z,997.97
2022-08-31T12:19:02.856Z,997.91
2022-08-31T12:20:02.907Z,997.93
2022-08-31T12:21:02.817Z,997.90
2022-08-31T12:22:02.783Z,997.89
2022-08-31T12:23:02.755Z,997.91
2022-08-31T12:24:02.761Z,997.87
2022-08-31T12:25:02.775Z,997.89
2022-08-31T12:26:02.768Z,997.86
2022-08-31T12:27:02.896Z,997.89
2022-08-31T12:28:02.737Z,997.95